createdAt,value
2023-10-09T00:02:13.535Z,1.42
2023-10-09T00:04:43.576Z,14.65
2023-10-09T00:07:11.696Z,4.63
2023-10-09T00:09:49.393Z,1.80
2023-10-09T00:12:24.714Z,1.50
2023-10-09T00:15:10.154Z,1.38
2023-10-09T00:17:39.364Z,1.30
2023-10-09T00:20:19.029Z,1.60
2023-10-09T00:22:47.717Z,2.30
2023-10-09T00:25:23.334Z,3.20
2023-10-09T00:27:50.444Z,0.85
2023-10-09T00:30:31.219Z,2.58
2023-10-09T00:33:08.580Z,0.80
2023-10-09T00:35:45.765Z,1.80
2023-10-09T00:38:21.739Z,0.75
2023-10-09T00:40:58.587Z,2.05
2023-10-09T00:43:29.770Z,1.25
2023-10-09T00:46:04.188Z,2.13
2023-10-09T00:48:34.291Z,0.90
2023-10-09T00:51:01.989Z,1.20
2023-10-09T00:53:32.466Z,3.13
2023-10-09T00:56:05.943Z,5.25
2023-10-09T00:58:37.330Z,0.90
2023-10-09T01:01:06.277Z,1.60
2023-10-09T01:03:35.103Z,1.15
2023-10-09T01:06:10.107Z,1.55
2023-10-09T01:08:41.895Z,2.30
2023-10-09T01:11:11.623Z,2.85
2023-10-09T01:13:51.820Z,1.65
2023-10-09T01:16:20.390Z,1.52
2023-10-09T01:18:52.395Z,3.13
2023-10-09T01:21:26.039Z,3.05
2023-10-09T01:24:11.636Z,1.60
2023-10-09T01:26:41.190Z,1.20
2023-10-09T01:29:20.385Z,1.45
2023-10-09T01:31:56.582Z,3.22
2023-10-09T01:34:50.690Z,1.52
2023-10-09T01:37:30.403Z,3.10
2023-10-09T01:40:00.516Z,1.80
2023-10-09T01:42:31.467Z,1.60
2023-10-09T01:45:24.804Z,9.95
2023-10-09T01:47:56.417Z,0.98
2023-10-09T01:50:28.720Z,1.60
2023-10-09T01:52:56.016Z,1.88
2023-10-09T01:55:30.551Z,1.65
2023-10-09T01:58:07.369Z,2.20
2023-10-09T02:00:42.953Z,2.63
2023-10-09T02:03:14.401Z,0.77
2023-10-09T02:05:43.542Z,2.08
2023-10-09T02:08:11.656Z,2.08
2023-10-09T02:10:40.791Z,2.15
2023-10-09T02:13:10.468Z,1.10
2023-10-09T02:15:47.257Z,1.55
2023-10-09T02:18:25.142Z,1.58
2023-10-09T02:21:13.881Z,3.17
2023-10-09T02:23:41.340Z,2.75
2023-10-09T02:26:20.832Z,1.70
2023-10-09T02:29:00.186Z,1.23
2023-10-09T02:31:34.799Z,2.10
2023-10-09T02:34:07.136Z,1.13
2023-10-09T02:36:39.706Z,2.13
2023-10-09T02:39:07.773Z,1.33
2023-10-09T02:41:35.838Z,2.10
2023-10-09T02:44:12.709Z,1.20
2023-10-09T02:46:41.540Z,3.22
2023-10-09T02:49:11.157Z,4.00
2023-10-09T02:51:49.576Z,8.13
2023-10-09T02:54:20.354Z,1.90
2023-10-09T02:57:07.181Z,1.33
2023-10-09T02:59:34.962Z,3.08
2023-10-09T03:02:02.150Z,2.67
2023-10-09T03:04:30.974Z,2.25
2023-10-09T03:07:02.035Z,4.90
2023-10-09T03:09:29.560Z,5.40
2023-10-09T03:12:05.229Z,1.75
2023-10-09T03:14:33.661Z,2.08
2023-10-09T03:17:00.669Z,7.93
2023-10-09T03:19:29.640Z,1.48
2023-10-09T03:21:58.799Z,1.83
2023-10-09T03:24:28.655Z,1.92
2023-10-09T03:26:59.581Z,5.35
2023-10-09T03:29:28.826Z,2.63
2023-10-09T03:31:58.171Z,3.55
2023-10-09T03:34:25.234Z,1.77
2023-10-09T03:37:12.668Z,1.77
2023-10-09T03:39:48.414Z,2.08
2023-10-09T03:42:21.861Z,2.67
2023-10-09T03:44:55.498Z,2.78
2023-10-09T03:47:23.885Z,1.75
2023-10-09T03:49:55.616Z,6.55
2023-10-09T03:52:27.454Z,3.50
2023-10-09T03:54:56.049Z,2.35
2023-10-09T03:57:24.746Z,3.92
2023-10-09T03:59:53.236Z,3.20
2023-10-09T04:02:23.575Z,1.73
2023-10-09T04:04:53.264Z,3.30
2023-10-09T04:07:20.597Z,1.83
2023-10-09T04:09:52.412Z,1.23
2023-10-09T04:12:23.071Z,1.63
2023-10-09T04:14:50.211Z,4.27
2023-10-09T04:17:23.109Z,2.30
2023-10-09T04:20:10.832Z,4.18
2023-10-09T04:23:02.634Z,1.67
2023-10-09T04:25:43.397Z,1.40
2023-10-09T04:28:20.306Z,2.22
2023-10-09T04:30:48.725Z,1.88
2023-10-09T04:33:42.526Z,9.40
2023-10-09T04:36:33.518Z,1.08
2023-10-09T04:39:03.178Z,1.92
2023-10-09T04:41:34.853Z,3.90
2023-10-09T04:44:20.755Z,5.53
2023-10-09T04:47:11.256Z,0.90
2023-10-09T04:52:26.451Z,1.63
2023-10-09T04:55:09.049Z,7.50
2023-10-09T04:57:46.716Z,6.85
2023-10-09T05:00:28.905Z,2.42
2023-10-09T05:03:00.292Z,2.67
2023-10-09T05:05:49.430Z,6.15
2023-10-09T05:08:29.880Z,5.22
2023-10-09T05:10:59.358Z,3.35
2023-10-09T05:13:42.292Z,4.43
2023-10-09T05:16:20.069Z,6.70
2023-10-09T05:18:57.979Z,5.13
2023-10-09T05:21:33.192Z,6.28
2023-10-09T05:24:15.437Z,2.72
2023-10-09T05:26:52.443Z,7.72
2023-10-09T05:29:29.792Z,1.48
2023-10-09T05:31:56.995Z,1.77
2023-10-09T05:34:59.885Z,11.25
2023-10-09T05:37:35.056Z,2.95
2023-10-09T05:40:17.414Z,2.70
2023-10-09T05:42:59.287Z,1.77
2023-10-09T05:45:46.856Z,1.75
2023-10-09T05:48:14.152Z,1.35
2023-10-09T05:50:56.456Z,1.48
2023-10-09T05:53:42.109Z,3.20
2023-10-09T05:56:27.598Z,2.25
2023-10-09T05:59:13.727Z,3.78
2023-10-09T06:01:59.403Z,5.93
2023-10-09T06:04:46.791Z,5.80
2023-10-09T06:07:14.773Z,4.30
2023-10-09T06:09:51.718Z,1.25
2023-10-09T06:12:54.001Z,1.40
2023-10-09T06:15:34.467Z,1.40
2023-10-09T06:18:21.671Z,1.52
2023-10-09T06:21:07.979Z,1.90
2023-10-09T06:23:58.049Z,1.77
2023-10-09T06:26:25.569Z,1.23
2023-10-09T06:29:13.376Z,5.03
2023-10-09T06:31:59.195Z,1.02
2023-10-09T06:34:37.065Z,2.00
2023-10-09T06:37:27.212Z,1.52
2023-10-09T06:39:58.125Z,4.78
2023-10-09T06:42:41.062Z,9.45
2023-10-09T06:45:16.364Z,1.77
2023-10-09T06:47:57.656Z,3.03
2023-10-09T06:50:48.313Z,5.63
2023-10-09T06:53:16.455Z,4.38
2023-10-09T06:55:50.606Z,1.73
2023-10-09T06:58:24.109Z,5.07
2023-10-09T07:01:01.061Z,2.28
2023-10-09T07:03:37.880Z,1.33
2023-10-09T07:06:25.828Z,11.35
2023-10-09T07:09:06.630Z,1.60
2023-10-09T07:11:40.973Z,2.95
2023-10-09T07:14:31.342Z,0.95
2023-10-09T07:17:17.472Z,5.45
2023-10-09T07:19:48.534Z,2.95
2023-10-09T07:22:22.263Z,4.05
2023-10-09T07:25:13.152Z,0.98
2023-10-09T07:28:01.377Z,5.43
2023-10-09T07:30:31.222Z,1.63
2023-10-09T07:33:12.182Z,7.88
2023-10-09T07:35:44.805Z,3.97
2023-10-09T07:38:21.828Z,7.30
2023-10-09T07:41:08.510Z,1.15
2023-10-09T07:43:40.782Z,2.75
2023-10-09T07:46:27.591Z,3.90
2023-10-09T07:48:59.147Z,1.77
2023-10-09T07:51:32.317Z,3.47
2023-10-09T07:54:10.115Z,4.00
2023-10-09T07:57:01.667Z,1.40
2023-10-09T07:59:32.598Z,4.13
2023-10-09T08:02:06.501Z,2.13
2023-10-09T08:04:39.900Z,2.05
2023-10-09T08:08:02.065Z,8.10
2023-10-09T08:10:22.556Z,3.10
2023-10-09T08:12:52.156Z,5.60
2023-10-09T08:15:20.114Z,4.18
2023-10-09T08:18:16.741Z,4.38
2023-10-09T08:21:12.591Z,2.97
2023-10-09T08:23:51.660Z,1.48
2023-10-09T08:26:34.191Z,4.15
2023-10-09T08:29:27.165Z,2.78
2023-10-09T08:31:58.427Z,1.40
2023-10-09T08:36:56.378Z,2.13
2023-10-09T08:39:26.865Z,2.28
2023-10-09T08:41:56.017Z,4.38
2023-10-09T08:44:26.285Z,2.00
2023-10-09T08:46:55.722Z,2.15
2023-10-09T08:49:25.392Z,1.98
2023-10-09T08:51:53.939Z,3.15
2023-10-09T08:54:21.149Z,10.90
2023-10-09T08:56:51.824Z,4.25
2023-10-09T08:59:20.817Z,1.00
2023-10-09T09:01:53.286Z,2.63
2023-10-09T09:04:41.432Z,3.08
2023-10-09T09:07:40.490Z,1.95
2023-10-09T09:10:22.705Z,1.25
2023-10-09T09:12:54.744Z,2.10
2023-10-09T09:15:22.883Z,1.95
2023-10-09T09:17:50.882Z,9.48
2023-10-09T09:20:35.865Z,4.05
2023-10-09T09:23:06.101Z,2.72
2023-10-09T09:25:49.351Z,3.42
2023-10-09T09:28:23.197Z,6.32
2023-10-09T09:30:53.190Z,3.28
2023-10-09T09:33:41.923Z,4.60
2023-10-09T09:36:08.986Z,3.97
2023-10-09T09:38:49.426Z,1.50
2023-10-09T09:41:27.620Z,1.80
2023-10-09T09:44:01.907Z,2.70
2023-10-09T09:46:37.360Z,3.67
2023-10-09T09:49:20.716Z,12.65
2023-10-09T09:51:48.354Z,2.90
2023-10-09T09:54:19.577Z,1.77
2023-10-09T09:56:53.609Z,1.20
2023-10-09T09:59:28.663Z,2.58
2023-10-09T10:02:08.371Z,2.70
2023-10-09T10:04:40.352Z,4.10
2023-10-09T10:07:12.798Z,7.68
2023-10-09T10:09:46.335Z,4.78
2023-10-09T10:12:15.563Z,3.13
2023-10-09T10:15:06.962Z,1.77
2023-10-09T10:18:02.488Z,1.65
2023-10-09T10:20:32.635Z,2.10
2023-10-09T10:23:27.061Z,4.10
2023-10-09T10:26:02.025Z,5.20
2023-10-09T10:28:47.038Z,5.75
2023-10-09T10:31:15.258Z,6.20
2023-10-09T10:33:57.645Z,3.00
2023-10-09T10:36:26.405Z,2.40
2023-10-09T10:39:23.140Z,10.00
2023-10-09T10:42:00.332Z,3.42
2023-10-09T10:44:43.764Z,2.92
2023-10-09T10:47:26.505Z,6.53
2023-10-09T10:50:00.588Z,3.00
2023-10-09T10:52:43.794Z,8.85
2023-10-09T10:55:19.454Z,6.38
2023-10-09T10:58:02.463Z,12.82
2023-10-09T11:00:49.072Z,2.85
2023-10-09T11:03:37.163Z,2.08
2023-10-09T11:06:16.866Z,4.07
2023-10-09T11:08:56.355Z,1.40
2023-10-09T11:11:24.492Z,10.43
2023-10-09T11:13:59.111Z,2.90
2023-10-09T11:16:45.723Z,6.18
2023-10-09T11:19:29.152Z,1.65
2023-10-09T11:22:15.450Z,2.88
2023-10-09T11:24:44.763Z,3.55
2023-10-09T11:27:20.172Z,2.10
2023-10-09T11:29:50.561Z,11.68
2023-10-09T11:32:25.608Z,8.07
2023-10-09T11:35:11.083Z,4.55
2023-10-09T11:37:44.091Z,5.43
2023-10-09T11:41:06.147Z,5.43
2023-10-09T11:43:53.699Z,4.03
2023-10-09T11:46:52.997Z,6.63
2023-10-09T11:49:23.139Z,12.75
2023-10-09T11:52:08.889Z,5.40
2023-10-09T11:54:36.850Z,5.30
2023-10-09T11:57:04.804Z,5.85
2023-10-09T11:59:39.387Z,3.33
2023-10-09T12:02:18.316Z,6.60
2023-10-09T12:04:47.185Z,9.57
2023-10-09T12:07:14.406Z,5.38
2023-10-09T12:09:41.877Z,11.02
2023-10-09T12:12:12.535Z,2.08
2023-10-09T12:14:41.050Z,7.15
2023-10-09T12:17:09.486Z,5.45
2023-10-09T12:19:40.412Z,11.88
2023-10-09T12:22:12.053Z,10.15
2023-10-09T12:24:39.446Z,7.25
2023-10-09T12:27:12.427Z,4.65
2023-10-09T12:29:46.599Z,3.45
2023-10-09T12:32:15.227Z,9.27
2023-10-09T12:34:43.808Z,7.75
2023-10-09T12:37:10.901Z,6.20
2023-10-09T12:39:41.667Z,3.97
2023-10-09T12:42:10.098Z,4.32
2023-10-09T12:44:40.367Z,7.97
2023-10-09T12:47:08.774Z,3.35
2023-10-09T12:49:35.787Z,3.55
2023-10-09T12:52:02.881Z,4.15
2023-10-09T12:54:30.122Z,5.15
2023-10-09T12:56:59.317Z,4.53
2023-10-09T12:59:26.725Z,3.90
2023-10-09T13:01:54.269Z,9.60
2023-10-09T13:04:23.631Z,4.95
2023-10-09T13:06:55.049Z,3.33
2023-10-09T13:09:26.369Z,5.28
2023-10-09T13:14:23.241Z,17.73
2023-10-09T13:16:54.295Z,2.85
2023-10-09T13:21:53.238Z,2.38
2023-10-09T13:24:25.751Z,8.52
2023-10-09T13:26:54.545Z,3.42
2023-10-09T13:29:24.021Z,4.60
2023-10-09T13:31:54.168Z,9.98
2023-10-09T13:34:21.377Z,12.63
2023-10-09T13:36:54.593Z,2.25
2023-10-09T13:39:28.186Z,6.20
2023-10-09T13:42:00.861Z,12.60
2023-10-09T13:44:33.329Z,2.35
2023-10-09T13:47:02.967Z,7.88
2023-10-09T13:49:33.351Z,3.10
2023-10-09T13:52:05.107Z,6.97
2023-10-09T13:57:07.538Z,4.25
2023-10-09T13:59:43.770Z,4.25
2023-10-09T14:02:18.296Z,3.95
2023-10-09T14:04:49.574Z,7.10
2023-10-09T14:07:18.634Z,2.42
2023-10-09T14:09:56.572Z,7.22
2023-10-09T14:12:26.381Z,2.40
2023-10-09T14:14:55.475Z,4.72
2023-10-09T14:17:29.628Z,9.13
2023-10-09T14:20:17.792Z,5.05
2023-10-09T14:22:46.752Z,6.07
2023-10-09T14:25:16.898Z,2.00
2023-10-09T14:27:44.083Z,1.77
2023-10-09T14:30:24.027Z,7.88
2023-10-09T14:32:57.353Z,3.17
2023-10-09T14:35:27.929Z,6.57
2023-10-09T14:37:55.295Z,2.00
2023-10-09T14:40:31.141Z,6.00
2023-10-09T14:42:59.307Z,9.05
2023-10-09T14:45:27.270Z,11.23
2023-10-09T14:47:55.466Z,14.95
2023-10-09T14:50:23.866Z,12.45
2023-10-09T14:52:54.156Z,4.75
2023-10-09T14:55:30.664Z,3.33
2023-10-09T14:58:00.527Z,7.68
2023-10-09T15:00:27.967Z,2.88
2023-10-09T15:02:55.055Z,6.85
2023-10-09T15:05:24.447Z,7.40
2023-10-09T15:07:54.053Z,3.55
2023-10-09T15:10:21.582Z,8.30
2023-10-09T15:12:51.151Z,10.43
2023-10-09T15:15:19.569Z,17.00
2023-10-09T15:17:49.541Z,9.45
2023-10-09T15:20:18.317Z,26.75
2023-10-09T15:22:46.371Z,8.88
2023-10-09T15:25:18.899Z,7.15
2023-10-09T15:27:46.089Z,5.40
2023-10-09T15:30:18.233Z,6.78
2023-10-09T15:32:45.757Z,11.55
2023-10-09T15:35:14.697Z,15.02
2023-10-09T15:37:44.007Z,15.55
2023-10-09T15:40:20.090Z,11.20
2023-10-09T15:42:51.596Z,10.45
2023-10-09T15:47:52.852Z,22.17
2023-10-09T15:50:24.165Z,18.73
2023-10-09T15:52:55.476Z,17.38
2023-10-09T15:57:55.952Z,14.65
2023-10-09T16:00:29.391Z,22.67
2023-10-09T16:02:56.650Z,22.30
2023-10-09T16:05:27.212Z,16.80
2023-10-09T16:07:56.111Z,22.40
2023-10-09T16:10:24.276Z,5.88
2023-10-09T16:12:54.131Z,16.05
2023-10-09T16:15:21.968Z,28.05
2023-10-09T16:17:50.477Z,9.30
2023-10-09T16:20:23.014Z,16.98
2023-10-09T16:22:51.011Z,21.80
2023-10-09T16:25:21.997Z,14.63
2023-10-09T16:27:49.353Z,21.58
2023-10-09T16:30:21.548Z,15.63
2023-10-09T16:32:49.375Z,13.75
2023-10-09T16:35:17.744Z,11.95
2023-10-09T16:37:44.745Z,22.70
2023-10-09T16:40:15.270Z,25.77
2023-10-09T16:42:43.710Z,22.83
2023-10-09T16:45:17.271Z,14.13
2023-10-09T16:47:48.564Z,23.20
2023-10-09T16:50:19.489Z,17.60
2023-10-09T16:52:46.880Z,26.23
2023-10-09T16:55:14.144Z,38.28
2023-10-09T16:57:42.581Z,27.85
2023-10-09T17:00:14.126Z,26.00
2023-10-09T17:02:42.144Z,11.48
2023-10-09T17:05:22.515Z,18.30
2023-10-09T17:07:50.348Z,42.22
2023-10-09T17:10:18.442Z,28.95
2023-10-09T17:12:47.977Z,22.35
2023-10-09T17:15:18.151Z,17.85
2023-10-09T17:17:51.999Z,13.75
2023-10-09T17:20:19.921Z,15.98
2023-10-09T17:22:47.660Z,13.20
2023-10-09T17:25:17.990Z,10.90
2023-10-09T17:27:45.397Z,26.60
2023-10-09T17:30:16.920Z,21.55
2023-10-09T17:35:15.322Z,16.45
2023-10-09T17:37:42.812Z,29.20
2023-10-09T17:40:10.241Z,26.52
2023-10-09T17:42:37.419Z,19.73
2023-10-09T17:45:07.791Z,20.45
2023-10-09T17:47:38.184Z,20.40
2023-10-09T17:50:12.321Z,14.97
2023-10-09T17:52:40.048Z,15.73
2023-10-09T17:55:07.781Z,12.15
2023-10-09T17:57:35.558Z,13.77
2023-10-09T18:00:04.982Z,16.77
2023-10-09T18:02:33.035Z,28.15
2023-10-09T18:05:00.029Z,23.27
2023-10-09T18:07:28.083Z,22.70
2023-10-09T18:09:55.251Z,17.77
2023-10-09T18:12:23.306Z,24.35
2023-10-09T18:14:56.252Z,15.23
2023-10-09T18:17:24.670Z,11.70
2023-10-09T18:19:52.892Z,13.18
2023-10-09T18:22:20.676Z,10.10
2023-10-09T18:24:47.743Z,9.73
2023-10-09T18:27:15.570Z,10.88
2023-10-09T18:29:43.422Z,20.42
2023-10-09T18:32:10.469Z,9.35
2023-10-09T18:34:39.532Z,13.90
2023-10-09T18:37:08.320Z,9.65
2023-10-09T18:39:40.227Z,18.23
2023-10-09T18:42:10.310Z,6.82
2023-10-09T18:44:45.224Z,9.88
2023-10-09T18:47:20.455Z,13.73
2023-10-09T18:49:51.614Z,14.48
2023-10-09T18:52:19.179Z,11.77
2023-10-09T18:54:46.836Z,14.18
2023-10-09T18:57:14.079Z,17.38
2023-10-09T18:59:44.102Z,18.70
2023-10-09T19:02:12.936Z,12.07
2023-10-09T19:04:40.264Z,14.73
2023-10-09T19:07:07.337Z,10.52
2023-10-09T19:09:34.851Z,16.65
2023-10-09T19:12:02.838Z,10.52
2023-10-09T19:14:32.780Z,13.10
2023-10-09T19:17:01.410Z,18.23
2023-10-09T19:19:28.734Z,9.38
2023-10-09T19:21:55.683Z,12.80
2023-10-09T19:24:22.985Z,12.40
2023-10-09T19:26:49.942Z,9.23
2023-10-09T19:29:17.118Z,9.20
2023-10-09T19:31:44.452Z,11.65
2023-10-09T19:34:14.762Z,9.90
2023-10-09T19:36:48.179Z,19.43
2023-10-09T19:39:19.104Z,12.70
2023-10-09T19:41:46.792Z,12.00
2023-10-09T19:44:13.744Z,9.38
2023-10-09T19:46:41.080Z,11.65
2023-10-09T19:49:08.126Z,10.60
2023-10-09T19:51:35.233Z,23.92
2023-10-09T19:54:02.210Z,10.65
2023-10-09T19:56:29.349Z,12.80
2023-10-09T19:58:58.895Z,14.88
2023-10-09T20:01:27.362Z,13.20
2023-10-09T20:03:54.672Z,12.05
2023-10-09T20:06:21.994Z,14.52
2023-10-09T20:08:49.200Z,10.68
2023-10-09T20:11:16.313Z,10.05
2023-10-09T20:13:44.643Z,6.50
2023-10-09T20:16:12.560Z,14.18
2023-10-09T20:18:44.414Z,24.90
2023-10-09T20:21:13.027Z,23.60
2023-10-09T20:23:41.255Z,9.07
2023-10-09T20:26:08.550Z,13.57
2023-10-09T20:28:38.524Z,9.80
2023-10-09T20:31:05.476Z,11.52
2023-10-09T20:33:37.088Z,7.25
2023-10-09T20:36:13.462Z,13.85
2023-10-09T20:38:40.713Z,14.15
2023-10-09T20:41:11.248Z,14.48
2023-10-09T20:43:42.365Z,7.17
2023-10-09T20:46:13.579Z,7.30
2023-10-09T20:51:19.273Z,19.02
2023-10-09T20:53:46.801Z,15.77
2023-10-09T20:56:13.931Z,12.63
2023-10-09T20:58:42.991Z,16.52
2023-10-09T21:01:17.862Z,8.75
2023-10-09T21:03:53.268Z,12.40
2023-10-09T21:06:22.481Z,5.93
2023-10-09T21:08:50.806Z,6.20
2023-10-09T21:11:18.336Z,5.07
2023-10-09T21:13:48.817Z,9.35
2023-10-09T21:16:17.443Z,4.82
2023-10-09T21:18:46.760Z,5.63
2023-10-09T21:21:15.840Z,2.22
2023-10-09T21:23:44.300Z,4.75
2023-10-09T21:26:22.771Z,6.65
2023-10-09T21:28:51.287Z,12.10
2023-10-09T21:31:20.524Z,5.88
2023-10-09T21:33:50.574Z,6.60
2023-10-09T21:36:18.671Z,2.83
2023-10-09T21:38:45.812Z,9.35
2023-10-09T21:41:14.570Z,12.15
2023-10-09T21:43:41.662Z,3.63
2023-10-09T21:46:09.388Z,3.05
2023-10-09T21:48:39.013Z,7.28
2023-10-09T21:51:09.541Z,3.33
2023-10-09T21:53:37.130Z,6.27
2023-10-09T21:56:08.989Z,4.03
2023-10-09T21:58:36.378Z,7.15
2023-10-09T22:01:04.772Z,12.65
2023-10-09T22:03:32.448Z,6.45
2023-10-09T22:06:00.292Z,14.13
2023-10-09T22:08:27.454Z,14.73
2023-10-09T22:10:55.080Z,14.75
2023-10-09T22:13:23.351Z,16.48
2023-10-09T22:15:50.680Z,6.00
2023-10-09T22:18:26.981Z,9.02
2023-10-09T22:21:06.619Z,14.30
2023-10-09T22:23:34.326Z,3.75
2023-10-09T22:26:02.130Z,12.30
2023-10-09T22:28:30.743Z,11.10
2023-10-09T22:31:04.629Z,13.70
2023-10-09T22:33:50.362Z,8.63
2023-10-09T22:36:34.415Z,18.80
2023-10-09T22:39:21.710Z,9.40
2023-10-09T22:41:55.858Z,10.90
2023-10-09T22:44:25.634Z,6.47
2023-10-09T22:46:53.404Z,6.70
2023-10-09T22:49:20.587Z,9.15
2023-10-09T22:51:53.239Z,16.40
2023-10-09T22:54:35.994Z,6.40
2023-10-09T22:57:04.596Z,7.30
2023-10-09T22:59:33.276Z,10.70
2023-10-09T23:02:00.931Z,7.57
2023-10-09T23:04:40.243Z,6.65
2023-10-09T23:07:17.286Z,16.85
2023-10-09T23:09:55.843Z,21.85
2023-10-09T23:12:27.010Z,10.55
2023-10-09T23:14:56.554Z,12.55
2023-10-09T23:17:44.267Z,11.85
2023-10-09T23:20:19.280Z,14.55
2023-10-09T23:22:49.545Z,11.15
2023-10-09T23:25:28.998Z,10.27
2023-10-09T23:28:15.301Z,8.10
2023-10-09T23:30:45.864Z,9.32
2023-10-09T23:33:22.161Z,6.72
2023-10-09T23:35:56.390Z,13.15
2023-10-09T23:38:32.934Z,13.32
2023-10-09T23:41:13.389Z,14.55
2023-10-09T23:43:47.685Z,10.32
2023-10-09T23:46:18.955Z,10.48
2023-10-09T23:51:20.253Z,6.10
2023-10-09T23:53:53.515Z,8.90
2023-10-09T23:56:39.706Z,6.20
2023-10-09T23:59:13.033Z,6.93
